Time;durP1;ratioP1;P1;durP2;ratioP2;P2;SDS_P1;SDS_P2;PMS_P1;PMS_P2;Temp;Humidity;BMP_temperature;BMP_pressure;BME280_temperature;BME280_humidity;BME280_pressure;Samples;Min_cycle;Max_cycle;Signal;HPM_P1;HPM_P2
2021/10/28 00:12:13;;;;;;;1.15;0.20;;;;;;;15.27;91.04;99473.31;5054229;28;20069;-80
2021/10/28 00:14:42;;;;;;;3.35;0.50;;;;;;;15.26;91.15;99461.34;5056555;28;20065;-80
2021/10/28 00:17:15;;;;;;;4.32;0.85;;;;;;;15.27;91.00;99445.41;5064550;28;20044;-80
2021/10/28 00:19:43;;;;;;;4.30;0.50;;;;;;;15.25;91.12;99441.03;5059444;28;20506;-80
2021/10/28 00:22:12;;;;;;;3.72;0.57;;;;;;;15.25;91.28;99435.47;5028584;28;20404;-80
2021/10/28 00:24:39;;;;;;;10.02;2.65;;;;;;;15.26;91.25;99441.84;5062376;28;20134;-80
2021/10/28 00:27:06;;;;;;;5.55;1.02;;;;;;;15.24;91.36;99433.88;5061539;28;20439;-80
2021/10/28 00:29:33;;;;;;;5.15;0.40;;;;;;;15.24;91.34;99439.47;5044048;28;20059;-80
2021/10/28 00:32:00;;;;;;;5.78;2.50;;;;;;;15.25;91.35;99429.09;5024287;28;20048;-80
2021/10/28 00:34:27;;;;;;;3.47;0.40;;;;;;;15.26;91.48;99430.69;5061078;28;20040;-79
2021/10/28 00:36:55;;;;;;;2.38;0.63;;;;;;;15.27;91.36;99443.44;5045759;28;20143;-80
2021/10/28 00:39:22;;;;;;;2.35;0.28;;;;;;;15.30;91.42;99436.25;5046751;28;20163;-80
2021/10/28 00:41:49;;;;;;;2.30;0.35;;;;;;;15.30;91.37;99447.41;5064736;28;20040;-80
2021/10/28 00:44:16;;;;;;;7.32;1.00;;;;;;;15.29;91.63;99443.00;5022549;28;20044;-80
2021/10/28 00:46:43;;;;;;;4.90;0.40;;;;;;;15.29;91.66;99440.22;5063987;28;20072;-80
2021/10/28 00:49:11;;;;;;;3.47;0.30;;;;;;;15.32;91.66;99433.84;5065113;28;20397;-80
2021/10/28 00:51:40;;;;;;;1.35;0.30;;;;;;;15.29;91.69;99434.66;5062824;28;20145;-80
2021/10/28 00:54:11;;;;;;;2.75;0.28;;;;;;;15.27;91.72;99430.25;5044165;28;20068;-79
2021/10/28 00:56:41;;;;;;;0.40;0.20;;;;;;;15.25;91.75;99426.28;5047057;28;20160;-80
2021/10/28 00:59:11;;;;;;;1.42;0.20;;;;;;;15.24;91.68;99422.75;5065265;28;20293;-80
2021/10/28 01:01:38;;;;;;;0.47;0.10;;;;;;;15.25;91.80;99417.94;5059464;28;20369;-80
2021/10/28 01:04:06;;;;;;;1.77;0.30;;;;;;;15.24;91.59;99427.50;5063196;28;20045;-80
2021/10/28 01:06:34;;;;;;;0.30;0.10;;;;;;;15.22;91.85;99427.91;5062373;28;20090;-80
2021/10/28 01:09:03;;;;;;;1.30;0.30;;;;;;;15.21;92.01;99419.97;5045538;28;20132;-80
2021/10/28 01:11:30;;;;;;;0.55;0.10;;;;;;;15.19;92.18;99417.59;5026086;28;20534;-81
2021/10/28 01:13:58;;;;;;;1.55;0.10;;;;;;;15.18;92.13;99423.56;5044624;28;20127;-80
2021/10/28 01:16:25;;;;;;;0.80;0.00;;;;;;;15.18;92.33;99418.00;5063364;28;20456;-80
2021/10/28 01:18:53;;;;;;;0.00;0.00;;;;;;;15.18;92.46;99418.78;5058639;28;20479;-81
2021/10/28 01:21:21;;;;;;;0.80;0.15;;;;;;;15.19;92.30;99392.50;5061311;28;20053;-80
2021/10/28 01:23:48;;;;;;;15.10;1.27;;;;;;;15.19;92.23;99375.78;5059111;28;20032;-80
2021/10/28 01:26:16;;;;;;;0.47;0.10;;;;;;;15.20;92.35;99382.91;5035832;28;20087;-81
2021/10/28 01:28:50;;;;;;;0.28;0.28;;;;;;;15.19;92.61;99386.13;5062143;28;20056;-80
2021/10/28 01:31:20;;;;;;;0.40;0.20;;;;;;;15.20;92.42;99384.91;5064539;28;20090;-80
2021/10/28 01:33:49;;;;;;;0.50;0.08;;;;;;;15.19;92.62;99381.34;5060657;28;20063;-80
2021/10/28 01:36:17;;;;;;;0.80;0.20;;;;;;;15.19;92.75;99374.97;5024641;28;20563;-80
2021/10/28 01:38:44;;;;;;;1.55;0.20;;;;;;;15.18;92.74;99363.03;5046078;28;20040;-80
2021/10/28 01:41:12;;;;;;;0.65;0.20;;;;;;;15.17;92.89;99383.72;5046978;28;20067;-80
2021/10/28 01:43:39;;;;;;;0.40;0.20;;;;;;;15.17;93.18;99386.53;5060298;28;20105;-80
2021/10/28 01:46:06;;;;;;;1.63;0.40;;;;;;;15.17;92.72;99397.66;5060645;28;20049;-80
2021/10/28 01:48:36;;;;;;;3.33;0.22;;;;;;;15.16;92.91;99410.03;5062398;28;20539;-80
2021/10/28 01:51:03;;;;;;;0.70;0.20;;;;;;;15.17;92.89;99414.41;5040187;28;20049;-80
2021/10/28 01:53:30;;;;;;;0.80;0.15;;;;;;;15.18;92.89;99404.03;5042271;28;20042;-79
2021/10/28 01:55:57;;;;;;;1.48;0.40;;;;;;;15.17;93.01;99397.66;5044976;28;20123;-80
2021/10/28 01:58:24;;;;;;;1.13;0.38;;;;;;;15.20;93.21;99393.28;5056770;28;20077;-80
2021/10/28 02:00:52;;;;;;;0.20;0.10;;;;;;;15.20;93.21;99405.22;5063923;28;20032;-80
2021/10/28 02:03:22;;;;;;;0.85;0.20;;;;;;;15.20;93.16;99413.59;5058332;28;20057;-81
2021/10/28 02:05:49;;;;;;;0.38;0.20;;;;;;;15.19;93.16;99391.72;5062075;28;20064;-80
2021/10/28 02:08:16;;;;;;;0.70;0.10;;;;;;;15.19;93.18;99411.22;5040376;28;20785;-80
2021/10/28 02:10:43;;;;;;;0.03;0.00;;;;;;;15.18;93.26;99409.63;5059488;28;20127;-79
2021/10/28 02:13:10;;;;;;;1.40;0.10;;;;;;;15.19;93.23;99395.28;5043018;28;20464;-79
2021/10/28 02:15:37;;;;;;;0.30;0.20;;;;;;;15.21;93.18;99394.88;5062919;28;20130;-80
2021/10/28 02:18:04;;;;;;;0.63;0.10;;;;;;;15.21;93.03;99417.97;5043081;28;20045;-80
2021/10/28 02:20:31;;;;;;;2.10;0.08;;;;;;;15.22;93.29;99411.19;5042594;28;20496;-80
2021/10/28 02:22:58;;;;;;;1.08;0.00;;;;;;;15.23;93.08;99415.56;5040781;28;20044;-80
2021/10/28 02:25:26;;;;;;;0.65;0.10;;;;;;;15.23;93.02;99412.78;5056994;28;20044;-80
2021/10/28 02:27:53;;;;;;;1.23;0.10;;;;;;;15.23;93.03;99420.34;5059182;28;20057;-80
2021/10/28 02:30:20;;;;;;;0.20;0.00;;;;;;;15.20;93.19;99421.94;5058249;28;20135;-80
2021/10/28 02:32:47;;;;;;;2.92;0.10;;;;;;;15.19;92.99;99416.78;5056518;28;20064;-80
2021/10/28 02:35:15;;;;;;;1.92;0.03;;;;;;;15.15;92.94;99408.44;5043766;28;20048;-80
2021/10/28 02:37:44;;;;;;;1.88;0.05;;;;;;;15.09;92.94;99410.06;5045855;28;20040;-80
2021/10/28 02:40:13;;;;;;;0.75;0.20;;;;;;;14.97;92.83;99402.19;5058503;28;20056;-80
2021/10/28 02:42:40;;;;;;;2.05;0.30;;;;;;;14.87;92.79;99397.47;5058840;28;20037;-80
2021/10/28 02:45:09;;;;;;;0.10;0.10;;;;;;;14.83;92.67;99402.25;5042378;28;20511;-80
2021/10/28 02:47:36;;;;;;;1.83;0.13;;;;;;;14.84;92.51;99409.44;5062844;28;20036;-80
2021/10/28 02:50:04;;;;;;;5.15;0.90;;;;;;;14.80;92.26;99411.44;5062451;28;20123;-81
2021/10/28 02:52:31;;;;;;;2.33;0.20;;;;;;;14.74;92.26;99407.50;5062292;28;20369;-80
2021/10/28 02:54:58;;;;;;;2.42;0.55;;;;;;;14.70;92.05;99415.06;5051869;28;20037;-80
2021/10/28 02:57:25;;;;;;;2.90;0.30;;;;;;;14.68;92.07;99423.03;5024788;28;20068;-79
2021/10/28 02:59:51;;;;;;;5.75;0.52;;;;;;;14.67;91.87;99427.00;5057726;28;20118;-80
2021/10/28 03:02:18;;;;;;;5.93;0.50;;;;;;;14.63;91.84;99415.09;5063003;28;20194;-80
2021/10/28 03:04:47;;;;;;;2.20;0.50;;;;;;;14.65;91.95;99423.84;5063410;28;20044;-80
2021/10/28 03:07:14;;;;;;;0.20;0.20;;;;;;;14.64;91.89;99425.84;5064959;28;21001;-80
2021/10/28 03:09:41;;;;;;;2.22;0.30;;;;;;;14.64;91.81;99413.88;5065344;28;20036;-80
2021/10/28 03:12:09;;;;;;;1.27;0.40;;;;;;;14.65;91.81;99412.69;5066514;28;20080;-80
2021/10/28 03:14:51;;;;;;;1.83;0.30;;;;;;;14.65;91.95;99412.69;5042660;28;20132;-80
2021/10/28 03:27:48;;;;;;;1.40;0.20;;;;;;;14.59;91.87;99415.13;5045734;28;20452;-80
2021/10/28 03:30:14;;;;;;;3.00;0.43;;;;;;;14.61;91.97;99414.72;5064928;28;20657;-80
2021/10/28 03:32:41;;;;;;;1.10;0.20;;;;;;;14.63;91.92;99412.31;5064052;28;20082;-80
2021/10/28 03:35:12;;;;;;;2.40;0.30;;;;;;;14.62;91.87;99419.06;5063085;28;20101;-80
2021/10/28 04:30:04;;;;;;;2.58;0.50;;;;;;;14.33;90.21;99406.47;5044096;28;20037;-80
2021/10/28 04:32:31;;;;;;;4.10;0.55;;;;;;;14.28;90.29;99402.06;5044927;28;20044;-80
2021/10/28 04:34:58;;;;;;;0.98;0.38;;;;;;;14.27;90.45;99406.03;5063627;28;20045;-79
2021/10/28 04:37:25;;;;;;;3.45;0.52;;;;;;;14.27;90.40;99402.50;5046260;28;20095;-80
2021/10/28 04:39:52;;;;;;;0.75;0.40;;;;;;;14.26;90.45;99412.03;5060702;28;20106;-80
2021/10/28 04:42:19;;;;;;;0.38;0.38;;;;;;;14.23;90.45;99412.81;5038561;28;20044;-80
2021/10/28 04:44:45;;;;;;;2.13;0.50;;;;;;;14.20;90.40;99408.84;5061852;28;20075;-80
2021/10/28 04:47:12;;;;;;;4.82;0.70;;;;;;;14.21;90.25;99409.66;5046998;28;20488;-80
2021/10/28 04:49:39;;;;;;;4.63;0.65;;;;;;;14.19;90.39;99407.25;5063915;28;20135;-79
2021/10/28 04:52:06;;;;;;;3.70;0.80;;;;;;;14.18;90.22;99410.44;5058671;28;20049;-80
2021/10/28 04:54:33;;;;;;;1.65;0.40;;;;;;;14.17;90.24;99408.84;5062360;28;20139;-79
2021/10/28 04:57:00;;;;;;;4.78;0.50;;;;;;;14.16;90.01;99408.09;5064204;28;20091;-81
2021/10/28 04:59:27;;;;;;;1.25;0.50;;;;;;;14.18;90.02;99404.88;5045035;28;20069;-80
2021/10/28 05:01:54;;;;;;;2.70;0.57;;;;;;;14.18;90.22;99416.03;5064772;28;20040;-80
2021/10/28 05:04:21;;;;;;;3.20;0.57;;;;;;;14.20;90.13;99413.63;5063674;28;20562;-80
2021/10/28 05:06:48;;;;;;;2.47;0.73;;;;;;;14.21;90.11;99415.22;5043888;28;20047;-80
2021/10/28 05:09:23;;;;;;;2.47;0.45;;;;;;;14.22;89.87;99422.34;5061784;28;20040;-80
2021/10/28 05:11:50;;;;;;;1.15;0.60;;;;;;;14.23;89.91;99419.19;5061930;28;20142;-80
2021/10/28 05:14:17;;;;;;;3.70;0.88;;;;;;;14.23;89.81;99423.97;5063537;28;20153;-80
2021/10/28 05:16:44;;;;;;;1.05;0.57;;;;;;;14.23;89.98;99423.97;5059118;28;20102;-79
2021/10/28 05:19:10;;;;;;;3.00;0.52;;;;;;;14.22;89.94;99425.16;5061666;28;20072;-80
2021/10/28 05:21:37;;;;;;;3.83;0.85;;;;;;;14.22;89.84;99420.38;5043257;28;20045;-80
2021/10/28 05:24:04;;;;;;;1.60;0.43;;;;;;;14.21;89.63;99415.22;5058765;28;20110;-80
2021/10/28 05:26:31;;;;;;;3.45;0.60;;;;;;;14.22;90.02;99423.16;5059112;28;20064;-80
2021/10/28 05:28:58;;;;;;;1.25;0.60;;;;;;;14.23;90.07;99415.59;5051747;28;20102;-80
2021/10/28 05:31:24;;;;;;;3.75;1.33;;;;;;;14.21;89.87;99420.78;5060399;28;20044;-79
2021/10/28 05:33:51;;;;;;;1.88;0.50;;;;;;;14.21;90.37;99415.22;5057205;28;20094;-80
2021/10/28 05:36:18;;;;;;;3.30;0.47;;;;;;;14.20;89.84;99413.63;5064267;28;20078;-80
2021/10/28 05:38:45;;;;;;;1.50;0.55;;;;;;;14.21;89.78;99420.78;5062710;28;20047;-80
2021/10/28 05:41:13;;;;;;;4.25;1.05;;;;;;;14.21;89.89;99420.78;5041836;28;20087;-79
2021/10/28 05:43:40;;;;;;;0.88;0.43;;;;;;;14.21;89.56;99429.13;5061487;28;20040;-80
2021/10/28 05:46:06;;;;;;;2.53;0.80;;;;;;;14.20;89.57;99435.88;5062226;28;20064;-80
2021/10/28 05:48:33;;;;;;;1.55;0.30;;;;;;;14.18;89.79;99435.50;5056611;28;20076;-80
2021/10/28 05:51:01;;;;;;;1.45;0.68;;;;;;;14.15;89.85;99427.94;5022512;28;20091;-79
2021/10/28 05:53:28;;;;;;;2.50;0.40;;;;;;;14.14;89.65;99416.03;5049461;28;20064;-79
2021/10/28 05:55:56;;;;;;;2.80;0.40;;;;;;;14.16;89.57;99424.78;5038840;28;20507;-80
2021/10/28 05:58:23;;;;;;;5.35;1.05;;;;;;;14.15;89.83;99427.94;5057115;28;20041;-80
2021/10/28 06:00:50;;;;;;;1.98;0.30;;;;;;;14.15;89.70;99423.19;5061216;28;20042;-80
2021/10/28 06:03:17;;;;;;;3.72;0.50;;;;;;;14.14;89.32;99418.03;5057338;28;20051;-80
2021/10/28 06:05:44;;;;;;;1.65;0.40;;;;;;;14.14;89.53;99424.38;5054511;28;20123;-81
2021/10/28 06:08:11;;;;;;;3.70;0.98;;;;;;;14.15;89.47;99412.06;5040932;28;20068;-81
2021/10/28 06:10:38;;;;;;;2.35;0.55;;;;;;;14.13;89.32;99408.09;5056993;28;20076;-80
2021/10/28 06:13:07;;;;;;;2.70;0.68;;;;;;;14.12;89.64;99412.03;5063044;28;20102;-82
2021/10/28 06:15:35;;;;;;;1.73;0.47;;;;;;;14.12;89.57;99406.47;5043651;28;20382;-81
2021/10/28 06:20:45;;;;;;;1.27;1.15;;;;;;;14.10;89.46;99397.75;5057323;28;20094;-81
2021/10/28 06:23:13;;;;;;;3.35;0.60;;;;;;;14.10;89.64;99386.63;5061025;28;20044;-81
2021/10/28 06:25:40;;;;;;;1.50;0.80;;;;;;;14.11;89.88;99377.09;5058873;28;20040;-81
2021/10/28 06:28:06;;;;;;;1.65;0.88;;;;;;;14.11;89.84;99377.09;5063617;28;20033;-81
2021/10/28 06:30:34;;;;;;;1.73;0.70;;;;;;;14.10;89.59;99367.94;5043095;28;20132;-80
2021/10/28 06:33:09;;;;;;;5.50;1.63;;;;;;;14.09;89.76;99369.13;5059202;28;20427;-81
2021/10/28 06:35:37;;;;;;;3.25;0.45;;;;;;;14.08;89.79;99366.75;5062704;28;20135;-80
2021/10/28 06:38:05;;;;;;;2.60;0.63;;;;;;;14.08;89.72;99372.31;5064478;28;20045;-81
2021/10/28 06:40:32;;;;;;;6.10;0.73;;;;;;;14.09;89.67;99373.88;5062198;28;20554;-80
2021/10/28 06:42:59;;;;;;;5.43;1.00;;;;;;;14.07;89.77;99374.31;5065561;28;20488;-81
2021/10/28 06:45:26;;;;;;;3.03;1.20;;;;;;;14.04;90.04;99366.75;5066642;28;20036;-81
2021/10/28 06:47:55;;;;;;;8.23;1.50;;;;;;;14.03;90.17;99363.16;5064280;28;20076;-81
2021/10/28 06:50:27;;;;;;;3.33;1.27;;;;;;;14.06;90.03;99358.00;5061937;28;20880;-81
2021/10/28 06:52:59;;;;;;;3.20;0.95;;;;;;;14.02;90.18;99353.25;5067298;28;20044;-81
2021/10/28 07:03:29;;;;;;;11.05;2.75;;;;;;;14.04;90.13;99327.78;5064610;28;20041;-81
2021/10/28 07:06:09;;;;;;;6.07;1.98;;;;;;;14.01;90.01;99323.81;5049027;28;20139;-81
2021/10/28 07:08:39;;;;;;;5.10;2.08;;;;;;;14.00;90.28;99319.44;5065536;28;20098;-80
2021/10/28 07:11:10;;;;;;;6.15;3.20;;;;;;;14.01;90.36;99320.25;5045970;28;20580;-81
2021/10/28 07:13:41;;;;;;;9.00;3.25;;;;;;;14.00;90.39;99310.31;5047597;28;20773;-81
2021/10/28 07:16:33;;;;;;;4.88;2.60;;;;;;;13.99;90.49;99315.09;5060276;28;20064;-80
2021/10/28 07:19:11;;;;;;;7.95;3.58;;;;;;;13.96;90.67;99310.31;5065427;28;20091;-80
2021/10/28 07:24:27;;;;;;;5.82;3.40;;;;;;;13.93;90.87;99308.34;5050857;28;20048;-80
2021/10/28 07:27:13;;;;;;;6.78;3.53;;;;;;;13.93;90.81;99294.44;5021215;28;20135;-80
2021/10/28 08:00:30;;;;;;;10.32;2.75;;;;;;;13.83;91.46;99311.97;5041244;28;20492;-80
2021/10/28 08:19:01;;;;;;;10.50;3.80;;;;;;;13.89;91.69;99315.91;5057922;28;20123;-80
2021/10/28 08:24:11;;;;;;;8.32;3.13;;;;;;;13.94;91.90;99296.03;5061007;28;20044;-80
2021/10/28 08:31:56;;;;;;;5.47;1.92;;;;;;;13.97;92.33;99294.44;5046299;28;20130;-80
2021/10/28 08:34:29;;;;;;;4.78;1.75;;;;;;;13.97;92.18;99295.22;5043891;28;20036;-80
2021/10/28 08:37:11;;;;;;;10.20;2.10;;;;;;;13.99;92.13;99292.03;5061423;28;20072;-80
2021/10/28 08:39:39;;;;;;;5.40;2.20;;;;;;;13.98;92.30;99291.22;5056502;28;20055;-81
2021/10/28 08:42:10;;;;;;;3.13;1.90;;;;;;;13.96;92.32;99293.63;5044252;28;20534;-81
2021/10/28 08:44:40;;;;;;;12.05;2.15;;;;;;;13.96;92.53;99287.28;5040730;28;20045;-80
2021/10/28 08:47:09;;;;;;;4.18;2.00;;;;;;;13.97;92.38;99284.09;5061157;28;20125;-80
2021/10/28 08:49:51;;;;;;;7.35;2.15;;;;;;;13.97;92.56;99278.53;5061367;28;20132;-81
2021/10/28 09:26:53;;;;;;;3.67;1.95;;;;;;;13.95;92.89;99210.56;5042558;28;20123;-80
2021/10/28 09:29:48;;;;;;;6.93;3.05;;;;;;;13.96;92.90;99206.56;5062655;28;20060;-80
2021/10/28 09:43:35;;;;;;;5.80;1.77;;;;;;;14.03;93.21;99187.84;5043496;28;20420;-80
2021/10/28 09:46:48;;;;;;;2.80;1.48;;;;;;;14.08;93.13;99188.66;5058295;28;20116;-80
2021/10/28 09:51:57;;;;;;;5.45;1.20;;;;;;;14.14;93.12;99187.03;5062869;28;20067;-80
2021/10/28 09:55:04;;;;;;;4.22;1.83;;;;;;;14.16;93.27;99190.19;5032556;28;20132;-80
2021/10/28 09:57:59;;;;;;;3.35;2.55;;;;;;;14.17;93.00;99192.56;5041492;28;20522;-81
2021/10/28 10:00:52;;;;;;;4.75;1.48;;;;;;;14.17;93.00;99192.56;5061947;28;20051;-81
2021/10/28 10:03:35;;;;;;;4.15;2.28;;;;;;;14.19;92.93;99184.56;5060030;28;20078;-80
2021/10/28 10:06:03;;;;;;;8.25;2.30;;;;;;;14.19;92.74;99178.25;5042071;28;20614;-80
2021/10/28 10:08:34;;;;;;;3.78;1.40;;;;;;;14.20;93.10;99183.38;5046680;28;20041;-80
2021/10/28 10:11:03;;;;;;;3.23;1.97;;;;;;;14.21;92.82;99186.97;5056802;28;20064;-80
2021/10/28 10:13:30;;;;;;;3.33;1.70;;;;;;;14.22;92.83;99194.09;5039915;28;20127;-81
2021/10/28 10:16:00;;;;;;;5.80;2.30;;;;;;;14.21;92.75;99184.97;5062650;28;20036;-81
2021/10/28 10:18:30;;;;;;;5.32;2.58;;;;;;;14.22;92.78;99174.63;5061254;28;20484;-81
2021/10/28 10:21:35;;;;;;;12.27;2.90;;;;;;;14.20;92.86;99157.53;5062166;28;20052;-80
2021/10/28 10:24:07;;;;;;;7.72;2.97;;;;;;;14.16;92.92;99152.03;5057027;28;20060;-80
2021/10/28 12:25:48;;;;;;;0.70;0.68;;;;;;;15.32;88.51;99062.97;5054397;28;20045;-84
2021/10/28 12:51:25;;;;;;;2.33;0.70;;;;;;;15.85;87.38;99046.31;5059322;28;20408;-85
2021/10/28 12:54:47;;;;;;;2.92;0.57;;;;;;;15.90;87.45;99040.25;5051717;28;20122;-86
2021/10/28 13:02:42;;;;;;;2.33;0.80;;;;;;;15.84;86.88;99036.34;5062238;28;20526;-85
2021/10/28 13:48:06;;;;;;;1.98;1.80;;;;;;;15.24;87.25;99001.72;5059706;28;20060;-85
2021/10/28 14:38:40;;;;;;;2.70;0.90;;;;;;;16.08;86.00;98957.03;4998544;28;20048;-85
2021/10/28 15:35:40;;;;;;;6.45;1.50;;;;;;;15.62;83.83;98923.53;5038196;28;20482;-84
2021/10/28 15:52:54;;;;;;;5.03;0.95;;;;;;;15.29;82.57;98922.41;5055619;28;20052;-84
2021/10/28 15:55:57;;;;;;;9.20;1.30;;;;;;;15.24;82.42;98934.81;5063256;28;20131;-85
2021/10/28 16:23:18;;;;;;;5.03;1.13;;;;;;;14.83;81.32;98934.16;5063393;28;20051;-84
2021/10/28 16:25:46;;;;;;;2.58;0.95;;;;;;;14.84;81.50;98934.97;5065075;28;20033;-84
2021/10/28 16:28:17;;;;;;;7.30;1.40;;;;;;;14.81;81.40;98931.03;5061393;28;20048;-84
2021/10/28 16:30:46;;;;;;;6.90;1.98;;;;;;;14.77;81.16;98921.94;5045206;28;20513;-80
2021/10/28 16:33:14;;;;;;;9.50;2.15;;;;;;;14.69;81.20;98912.09;5061525;28;20079;-80
2021/10/28 16:35:42;;;;;;;7.63;1.17;;;;;;;14.64;81.39;98913.31;5028395;28;20079;-80
2021/10/28 16:38:10;;;;;;;5.18;1.00;;;;;;;14.61;81.56;98910.59;5060590;28;20064;-80
2021/10/28 16:40:37;;;;;;;3.90;0.85;;;;;;;14.61;81.29;98910.59;5063328;28;20050;-80
2021/10/28 16:43:04;;;;;;;4.13;1.40;;;;;;;14.55;81.45;98901.13;5058458;28;20505;-80
2021/10/28 16:45:32;;;;;;;7.43;1.63;;;;;;;14.55;81.36;98901.91;5044055;28;20044;-80
2021/10/28 16:47:59;;;;;;;10.48;1.42;;;;;;;14.52;81.23;98897.16;5047108;28;20122;-80
2021/10/28 16:50:26;;;;;;;7.20;1.30;;;;;;;14.52;81.16;98901.94;5057828;28;20061;-80
2021/10/28 16:52:53;;;;;;;5.47;1.45;;;;;;;14.49;81.22;98898.00;5042165;28;20492;-81
2021/10/28 16:55:20;;;;;;;7.43;1.98;;;;;;;14.42;81.05;98891.72;5062106;28;20136;-81
2021/10/28 16:57:47;;;;;;;7.88;1.38;;;;;;;14.39;81.22;98892.56;5043582;28;20044;-80
2021/10/28 17:00:17;;;;;;;4.00;1.23;;;;;;;14.33;81.11;98896.97;5057841;28;20076;-81
2021/10/28 17:02:44;;;;;;;7.70;1.80;;;;;;;14.29;80.98;98888.66;5044041;28;21390;-80
2021/10/28 17:05:14;;;;;;;8.13;1.60;;;;;;;14.27;81.33;98895.84;5036292;28;20037;-81
2021/10/28 17:07:41;;;;;;;8.63;1.80;;;;;;;14.24;81.07;98893.91;5053817;28;20037;-81
2021/10/28 17:10:09;;;;;;;7.28;2.00;;;;;;;14.22;81.36;98893.50;5058023;28;20043;-81
2021/10/28 17:12:36;;;;;;;4.93;1.55;;;;;;;14.21;81.25;98891.94;5058252;28;20045;-80
2021/10/28 17:15:04;;;;;;;5.97;1.77;;;;;;;14.19;81.33;98899.91;5046918;28;20044;-81
2021/10/28 17:17:31;;;;;;;5.18;2.10;;;;;;;14.16;81.50;98912.66;5040732;28;20128;-81
2021/10/28 17:20:05;;;;;;;9.73;2.50;;;;;;;14.14;81.42;98914.28;5061785;28;20120;-81
2021/10/28 17:22:36;;;;;;;9.05;1.95;;;;;;;14.11;81.49;98910.31;5065061;28;20036;-81
2021/10/28 17:25:06;;;;;;;6.13;1.52;;;;;;;14.08;81.70;98911.16;5045744;28;20036;-80
2021/10/28 17:27:33;;;;;;;8.32;1.98;;;;;;;14.09;81.73;98911.91;5059037;28;20093;-80
2021/10/28 17:30:03;;;;;;;4.65;2.13;;;;;;;14.09;81.72;98911.91;5060430;28;20045;-80
2021/10/28 17:32:30;;;;;;;3.85;1.80;;;;;;;14.07;81.73;98908.78;5061222;28;20094;-80
2021/10/28 17:34:57;;;;;;;10.25;2.30;;;;;;;14.07;81.90;98915.13;5063833;28;20139;-81
2021/10/28 17:37:24;;;;;;;6.18;2.40;;;;;;;14.09;82.01;98923.06;5058432;28;20485;-80
2021/10/28 17:39:51;;;;;;;8.68;2.30;;;;;;;14.09;82.09;98925.84;5054900;28;20072;-80
2021/10/28 17:42:19;;;;;;;14.65;4.15;;;;;;;14.12;82.14;98927.81;5054163;28;20044;-80
2021/10/28 17:44:53;;;;;;;7.10;2.10;;;;;;;14.13;82.22;98923.81;5040073;28;20072;-80
2021/10/28 17:47:20;;;;;;;5.47;2.03;;;;;;;14.15;82.31;98926.97;5061607;28;20048;-80
2021/10/28 17:49:49;;;;;;;7.95;1.65;;;;;;;14.13;82.27;98940.53;5047997;28;20036;-80
2021/10/28 17:52:35;;;;;;;5.05;1.40;;;;;;;14.01;82.59;98939.81;5020763;28;20403;-79
2021/10/28 17:55:04;;;;;;;4.53;1.80;;;;;;;13.96;82.87;98945.84;5052800;28;20041;-80
2021/10/28 17:57:31;;;;;;;1.40;1.00;;;;;;;13.98;82.86;98946.22;5034891;28;20068;-80
2021/10/28 17:59:58;;;;;;;5.28;1.10;;;;;;;13.95;82.86;98946.25;5052962;28;20044;-80
2021/10/28 18:02:25;;;;;;;1.70;1.42;;;;;;;13.94;83.13;98950.25;5055430;28;20477;-80
2021/10/28 18:04:52;;;;;;;2.05;1.63;;;;;;;13.94;83.37;98947.47;5055129;28;20473;-80
2021/10/28 18:07:19;;;;;;;5.18;1.88;;;;;;;13.91;83.58;98949.06;5058376;28;20049;-80
2021/10/28 18:09:47;;;;;;;2.65;1.40;;;;;;;13.86;83.73;98946.72;5050892;28;21152;-80
2021/10/28 18:12:14;;;;;;;2.25;1.05;;;;;;;13.88;83.69;98949.88;5035189;28;20045;-80
2021/10/28 18:14:41;;;;;;;6.13;1.25;;;;;;;13.88;83.77;98949.09;5035194;28;20033;-80
2021/10/28 18:17:08;;;;;;;2.42;1.30;;;;;;;13.87;83.84;98956.63;5032577;28;20053;-80
2021/10/28 18:19:35;;;;;;;3.50;1.40;;;;;;;13.85;83.70;98961.81;5055073;28;20037;-80
2021/10/28 18:22:02;;;;;;;2.05;0.95;;;;;;;13.83;83.78;98967.03;5054671;28;20095;-79
2021/10/28 18:24:29;;;;;;;2.90;1.08;;;;;;;13.79;83.91;98960.69;5053457;28;20037;-80
2021/10/28 18:26:56;;;;;;;2.22;1.23;;;;;;;13.81;83.76;98954.72;5032822;28;20048;-80
2021/10/28 18:29:23;;;;;;;5.97;1.98;;;;;;;13.81;83.94;98960.28;5020615;28;20098;-80
2021/10/28 18:31:50;;;;;;;4.13;1.27;;;;;;;13.74;83.80;98958.34;5058777;28;20124;-80
2021/10/28 18:34:18;;;;;;;1.88;1.10;;;;;;;13.73;83.81;98951.22;5039894;28;20037;-80
2021/10/28 18:36:45;;;;;;;3.95;1.42;;;;;;;13.68;83.79;98965.56;5053204;28;20140;-80
2021/10/28 18:39:15;;;;;;;1.63;1.13;;;;;;;13.61;83.90;98965.59;5055993;28;20119;-80
2021/10/28 18:41:43;;;;;;;4.65;1.80;;;;;;;13.59;83.91;98953.31;5057235;28;20123;-80
2021/10/28 18:44:10;;;;;;;3.42;1.50;;;;;;;13.56;83.94;98956.88;5059716;28;20044;-80
2021/10/28 18:46:37;;;;;;;3.90;1.48;;;;;;;13.56;83.68;98957.69;5048838;28;20539;-80
2021/10/28 18:49:06;;;;;;;1.88;1.38;;;;;;;13.59;83.86;98964.41;5058774;28;20064;-80
2021/10/28 18:51:36;;;;;;;6.28;3.90;;;;;;;13.59;83.75;98973.56;5051567;28;20128;-80
2021/10/28 18:54:03;;;;;;;7.50;5.57;;;;;;;13.58;83.77;98977.53;5057019;28;20081;-78
2021/10/28 18:56:31;;;;;;;6.00;2.85;;;;;;;13.57;83.98;98977.94;5057909;28;20235;-78
2021/10/28 18:58:58;;;;;;;3.92;2.58;;;;;;;13.55;83.90;98980.34;5057695;28;20067;-78
2021/10/28 19:01:28;;;;;;;6.35;2.58;;;;;;;13.55;83.91;98981.16;5039486;28;20128;-78
2021/10/28 19:03:55;;;;;;;3.40;2.20;;;;;;;13.54;84.05;98982.34;5058719;28;20045;-78
2021/10/28 19:06:22;;;;;;;4.90;3.28;;;;;;;13.52;84.15;98984.75;5037877;28;20447;-78
2021/10/28 19:08:49;;;;;;;6.68;4.88;;;;;;;13.49;84.11;98984.75;5056118;28;20749;-77
2021/10/28 19:11:17;;;;;;;8.05;5.40;;;;;;;13.52;84.03;98990.31;5057359;28;20135;-78
2021/10/28 19:13:46;;;;;;;12.00;5.57;;;;;;;13.47;84.16;98987.94;5038386;28;20045;-78
2021/10/28 19:16:14;;;;;;;7.05;3.33;;;;;;;13.47;84.22;98996.28;5055017;28;20064;-78
2021/10/28 19:18:42;;;;;;;8.00;3.40;;;;;;;13.49;84.21;98991.13;5038725;28;20094;-78
2021/10/28 19:21:11;;;;;;;6.35;2.30;;;;;;;13.49;84.00;98996.66;5056356;28;20033;-79
2021/10/28 19:23:39;;;;;;;7.07;3.33;;;;;;;13.48;83.76;98986.75;5056163;28;20040;-78
2021/10/28 19:26:06;;;;;;;7.07;4.07;;;;;;;13.46;83.69;98986.38;5035828;28;20171;-78
2021/10/28 19:28:33;;;;;;;7.55;4.57;;;;;;;13.42;84.00;98983.59;5057616;28;20094;-84
2021/10/28 19:31:08;;;;;;;6.15;3.80;;;;;;;13.42;83.80;98974.50;5041297;28;20040;-84
2021/10/28 19:33:42;;;;;;;6.13;2.88;;;;;;;13.41;83.71;98978.44;5040758;28;20119;-83
2021/10/28 19:36:12;;;;;;;4.65;3.58;;;;;;;13.39;83.78;98970.53;5038304;28;20064;-81
2021/10/28 19:46:46;;;;;;;4.13;2.90;;;;;;;13.27;84.10;98979.31;5055926;28;20056;-81
2021/10/28 19:49:15;;;;;;;6.55;2.60;;;;;;;13.26;84.08;98976.97;5062285;28;20120;-82
2021/10/28 19:51:43;;;;;;;4.82;2.63;;;;;;;13.25;84.13;98986.50;5053951;28;20076;-82
2021/10/28 19:54:13;;;;;;;5.15;3.00;;;;;;;13.25;84.11;98975.38;5056962;28;20068;-81
2021/10/28 19:56:41;;;;;;;6.13;3.20;;;;;;;13.26;84.00;98977.72;5056901;28;20052;-82
2021/10/28 19:59:11;;;;;;;8.20;3.63;;;;;;;13.23;83.95;98967.44;5054536;28;20114;-83
2021/10/28 20:01:51;;;;;;;8.00;5.20;;;;;;;13.23;84.12;98969.44;5055593;28;20464;-82
2021/10/28 20:20:02;;;;;;;6.85;5.00;;;;;;;13.26;84.16;98963.06;5053431;28;20067;-81
2021/10/28 20:20:54;;;;;;;7.00;4.43;;;;;;;13.19;84.28;98951.97;5053244;28;20040;-81
2021/10/28 20:23:21;;;;;;;7.00;3.20;;;;;;;13.14;84.39;98955.19;5056049;28;20048;-81
2021/10/28 20:25:48;;;;;;;4.97;2.90;;;;;;;13.13;84.32;98948.84;5053652;28;20037;-81
2021/10/28 20:28:15;;;;;;;7.50;2.92;;;;;;;13.11;83.95;98950.44;5042689;28;20083;-80
2021/10/28 20:31:00;;;;;;;7.32;3.65;;;;;;;13.07;84.36;98956.03;5055500;28;20124;-81
2021/10/28 20:33:30;;;;;;;9.65;3.30;;;;;;;13.07;84.36;98952.47;5052613;28;20062;-81
2021/10/28 20:38:42;;;;;;;4.72;2.45;;;;;;;13.06;83.88;98957.19;5053194;28;20159;-81
2021/10/28 20:41:09;;;;;;;3.85;2.60;;;;;;;13.07;83.66;98955.22;5021481;28;20139;-81
2021/10/28 20:43:36;;;;;;;4.15;1.90;;;;;;;13.07;83.72;98958.00;5056003;28;20127;-81
2021/10/28 20:46:04;;;;;;;3.60;2.42;;;;;;;13.05;83.53;98944.47;5037438;28;20033;-86
2021/10/28 20:48:31;;;;;;;6.57;1.92;;;;;;;13.06;84.13;98957.19;5057150;28;20043;-86
2021/10/28 20:50:58;;;;;;;2.67;2.13;;;;;;;13.03;84.15;98946.09;5037513;28;20057;-84
2021/10/28 20:53:25;;;;;;;3.33;2.00;;;;;;;13.00;84.33;98952.47;5033548;28;20509;-81